Time,TemperatureF,DewpointF,PressureIn,WindDirection,WindDirectionDegrees,WindSpeedMPH,WindSpeedGustMPH,Humidity,HourlyPrecipIn,Conditions,Clouds,dailyrainin,SoftwareType,DateUTC
2013-04-02 00:02:00,46.0,42.0,-100.00,SSE,148,6.0,7.0,85,0.00,,,-99.99,,2013-04-02 06:02:00,
2013-04-02 00:12:00,47.0,42.0,-100.00,SSE,164,6.0,8.0,84,0.00,,,-99.99,,2013-04-02 06:12:00,
2013-04-02 00:22:00,47.0,42.0,-100.00,SSE,167,7.0,9.0,84,0.00,,,-99.99,,2013-04-02 06:22:00,
2013-04-02 00:31:00,47.0,42.0,-100.00,SSE,167,7.0,9.0,84,0.00,,,-99.99,,2013-04-02 06:31:00,
2013-04-02 00:42:00,47.0,42.0,-100.00,SSE,167,7.0,9.0,84,0.00,,,-99.99,,2013-04-02 06:42:00,
2013-04-02 00:52:00,45.0,41.0,-100.00,South,172,5.0,7.0,87,0.00,,,-99.99,,2013-04-02 06:52:00,
2013-04-02 01:01:00,45.0,41.0,-100.00,South,172,5.0,7.0,87,0.00,,,-99.99,,2013-04-02 07:01:00,
2013-04-02 01:12:00,46.0,42.0,-100.00,South,179,6.0,7.0,85,0.00,,,-99.99,,2013-04-02 07:12:00,
2013-04-02 01:22:00,44.0,40.0,-100.00,SE,143,5.0,6.0,86,0.00,,,-99.99,,2013-04-02 07:22:00,
2013-04-02 01:31:00,44.0,40.0,-100.00,SE,143,5.0,6.0,86,0.00,,,-99.99,,2013-04-02 07:31:00,
2013-04-02 01:42:00,43.0,39.0,-100.00,SE,143,6.0,7.0,88,0.00,,,-99.99,,2013-04-02 07:42:00,
2013-04-02 01:52:00,41.0,39.0,-100.00,SE,136,6.0,8.0,91,0.00,,,-99.99,,2013-04-02 07:52:00,
2013-04-02 02:02:00,41.0,39.0,-100.00,SE,136,6.0,8.0,91,0.00,,,-99.99,,2013-04-02 08:02:00,
2013-04-02 02:12:00,41.0,38.0,-100.00,SE,136,6.0,7.0,92,0.00,,,-99.99,,2013-04-02 08:12:00,
2013-04-02 02:22:00,40.0,38.0,-100.00,SE,133,6.0,7.0,93,0.00,,,-99.99,,2013-04-02 08:22:00,
2013-04-02 02:31:00,40.0,38.0,-100.00,SE,133,6.0,7.0,93,0.00,,,-99.99,,2013-04-02 08:31:00,
2013-04-02 02:42:00,40.0,38.0,-100.00,SE,138,7.0,8.0,94,0.00,,,-99.99,,2013-04-02 08:42:00,
2013-04-02 02:52:00,40.0,39.0,-100.00,SE,133,5.0,6.0,94,0.00,,,-99.99,,2013-04-02 08:52:00,
2013-04-02 03:01:00,40.0,39.0,-100.00,SE,133,5.0,6.0,94,0.00,,,-99.99,,2013-04-02 09:01:00,
2013-04-02 03:12:00,40.0,39.0,-100.00,SE,136,6.0,7.0,95,0.00,,,-99.99,,2013-04-02 09:12:00,
2013-04-02 03:22:00,40.0,39.0,-100.00,SE,138,6.0,7.0,95,0.00,,,-99.99,,2013-04-02 09:22:00,
2013-04-02 03:32:00,40.0,39.0,-100.00,SE,138,6.0,7.0,95,0.00,,,-99.99,,2013-04-02 09:32:00,
2013-04-02 03:42:00,41.0,40.0,-100.00,SE,134,6.0,7.0,94,0.00,,,-99.99,,2013-04-02 09:42:00,
2013-04-02 03:52:00,41.0,40.0,-100.00,SE,141,6.0,7.0,95,0.00,,,-99.99,,2013-04-02 09:52:00,
2013-04-02 04:03:00,41.0,40.0,-100.00,SE,141,6.0,7.0,95,0.00,,,-99.99,,2013-04-02 10:03:00,
2013-04-02 04:13:00,41.0,40.0,-100.00,SSE,158,7.0,8.0,95,0.00,,,-99.99,,2013-04-02 10:13:00,
2013-04-02 04:23:00,41.0,40.0,-100.00,SSE,160,5.0,6.0,94,0.00,,,-99.99,,2013-04-02 10:23:00,
2013-04-02 04:30:00,41.0,39.0,-100.00,SSE,150,5.0,6.0,93,0.00,,,-99.99,,2013-04-02 10:30:00,
2013-04-02 04:32:00,41.0,40.0,-100.00,SSE,160,5.0,6.0,94,0.00,,,-99.99,,2013-04-02 10:32:00,
2013-04-02 04:42:00,41.0,40.0,-100.00,SE,141,6.0,7.0,94,0.00,,,-99.99,,2013-04-02 10:42:00,
2013-04-02 04:52:00,41.0,39.0,-100.00,SSE,150,5.0,6.0,93,0.00,,,-99.99,,2013-04-02 10:52:00,
2013-04-02 05:02:00,41.0,39.0,-100.00,SSE,150,5.0,6.0,93,0.00,,,-99.99,,2013-04-02 11:02:00,
2013-04-02 05:12:00,41.0,39.0,-100.00,SSE,150,5.0,6.0,93,0.00,,,-99.99,,2013-04-02 11:12:00,
2013-04-02 05:22:00,41.0,39.0,-100.00,SSE,150,5.0,6.0,93,0.00,,,-99.99,,2013-04-02 11:22:00,
2013-04-02 05:43:00,39.0,38.0,-100.00,South,185,3.0,4.0,95,0.00,,,-99.99,,2013-04-02 11:43:00,
2013-04-02 05:52:00,39.0,38.0,-100.00,SSW,193,4.0,5.0,96,0.00,,,-99.99,,2013-04-02 11:52:00,
2013-04-02 06:02:00,39.0,38.0,-100.00,SSW,193,4.0,5.0,96,0.00,,,-99.99,,2013-04-02 12:02:00,
2013-04-02 06:11:00,39.0,38.0,-100.00,WSW,240,2.0,4.0,96,0.00,,,-99.99,,2013-04-02 12:11:00,
2013-04-02 06:22:00,39.0,38.0,-100.00,WSW,240,3.0,4.0,98,0.00,,,-99.99,,2013-04-02 12:22:00,
2013-04-02 06:32:00,39.0,38.0,-100.00,WSW,240,3.0,4.0,98,0.00,,,-99.99,,2013-04-02 12:32:00,
2013-04-02 06:42:00,38.0,38.0,-100.00,SSW,192,2.0,3.0,98,0.00,,,-99.99,,2013-04-02 12:42:00,
2013-04-02 06:52:00,38.0,38.0,-100.00,South,178,3.0,4.0,100,0.00,,,-99.99,,2013-04-02 12:52:00,
2013-04-02 07:01:00,38.0,38.0,-100.00,South,178,3.0,4.0,100,0.00,,,-99.99,,2013-04-02 13:01:00,
2013-04-02 07:12:00,38.0,38.0,-100.00,South,174,4.0,5.0,98,0.00,,,-99.99,,2013-04-02 13:12:00,
2013-04-02 07:22:00,37.0,36.0,-100.00,South,181,4.0,6.0,98,0.00,,,-99.99,,2013-04-02 13:22:00,
2013-04-02 07:32:00,37.0,36.0,-100.00,South,181,4.0,6.0,98,0.00,,,-99.99,,2013-04-02 13:32:00,
2013-04-02 07:42:00,40.0,39.0,-100.00,SSW,195,4.0,5.0,98,0.00,,,-99.99,,2013-04-02 13:42:00,
2013-04-02 07:52:00,37.0,36.0,-100.00,South,178,2.0,3.0,97,0.00,,,-99.99,,2013-04-02 13:52:00,
2013-04-02 08:02:00,37.0,36.0,-100.00,South,178,2.0,3.0,97,0.00,,,-99.99,,2013-04-02 14:02:00,
2013-04-02 08:12:00,38.0,37.0,-100.00,SW,232,3.0,4.0,98,0.00,,,-99.99,,2013-04-02 14:12:00,
2013-04-02 08:22:00,38.0,38.0,-100.00,WSW,250,4.0,6.0,99,0.00,,,-99.99,,2013-04-02 14:22:00,
2013-04-02 08:32:00,38.0,38.0,-100.00,WSW,250,4.0,6.0,99,0.00,,,-99.99,,2013-04-02 14:32:00,
2013-04-02 08:42:00,38.0,38.0,-100.00,WSW,248,5.0,7.0,98,0.00,,,-99.99,,2013-04-02 14:42:00,
2013-04-02 08:52:00,38.0,38.0,-100.00,NW,319,1.0,2.0,99,0.00,,,-99.99,,2013-04-02 14:52:00,
2013-04-02 09:02:00,38.0,38.0,-100.00,NW,319,1.0,2.0,99,0.00,,,-99.99,,2013-04-02 15:02:00,
2013-04-02 09:11:00,39.0,38.0,-100.00,NW,325,2.0,3.0,98,0.00,,,-99.99,,2013-04-02 15:11:00,
2013-04-02 09:22:00,40.0,39.0,-100.00,ENE,69,1.0,2.0,96,0.00,,,-99.99,,2013-04-02 15:22:00,
2013-04-02 09:33:00,40.0,39.0,-100.00,ENE,69,1.0,2.0,96,0.00,,,-99.99,,2013-04-02 15:33:00,
2013-04-02 09:42:00,41.0,40.0,-100.00,WNW,282,1.0,4.0,96,0.00,,,-99.99,,2013-04-02 15:42:00,
2013-04-02 09:56:00,41.0,40.0,-100.00,West,280,1.0,2.0,94,0.00,,,-99.99,,2013-04-02 15:56:00,
2013-04-02 10:02:00,41.0,40.0,-100.00,West,280,1.0,2.0,94,0.00,,,-99.99,,2013-04-02 16:02:00,
2013-04-02 10:13:00,43.0,40.0,-100.00,West,277,2.0,5.0,92,0.00,,,-99.99,,2013-04-02 16:13:00,
2013-04-02 10:24:00,44.0,41.0,-100.00,West,275,1.0,3.0,89,0.00,,,-99.99,,2013-04-02 16:24:00,
2013-04-02 10:33:00,44.0,41.0,-100.00,West,275,1.0,3.0,89,0.00,,,-99.99,,2013-04-02 16:33:00,
2013-04-02 10:42:00,45.0,41.0,-100.00,WSW,241,4.0,6.0,84,0.00,,,-99.99,,2013-04-02 16:42:00,
2013-04-02 10:53:00,46.0,41.0,-100.00,WSW,254,4.0,5.0,82,0.00,,,-99.99,,2013-04-02 16:53:00,
2013-04-02 11:02:00,46.0,41.0,-100.00,WSW,254,4.0,5.0,82,0.00,,,-99.99,,2013-04-02 17:02:00,
2013-04-02 11:12:00,48.0,42.0,-100.00,West,281,5.0,8.0,80,0.00,,,-99.99,,2013-04-02 17:12:00,
2013-04-02 11:24:00,49.0,42.0,-100.00,WSW,241,5.0,7.0,79,0.00,,,-99.99,,2013-04-02 17:24:00,
2013-04-02 11:33:00,49.0,42.0,-100.00,WSW,241,5.0,7.0,79,0.00,,,-99.99,,2013-04-02 17:33:00,
2013-04-02 11:42:00,50.0,43.0,-100.00,WSW,253,7.0,9.0,78,0.00,,,-99.99,,2013-04-02 17:42:00,
2013-04-02 11:54:00,51.0,43.0,-100.00,SW,234,7.0,11.0,76,0.00,,,-99.99,,2013-04-02 17:54:00,
2013-04-02 12:02:00,51.0,43.0,-100.00,SW,234,7.0,11.0,76,0.00,,,-99.99,,2013-04-02 18:02:00,
2013-04-02 12:12:00,53.0,44.0,-100.00,SW,233,8.0,10.0,72,0.00,,,-99.99,,2013-04-02 18:12:00,
2013-04-02 12:22:00,53.0,44.0,-100.00,West,265,7.0,9.0,70,0.00,,,-99.99,,2013-04-02 18:22:00,
2013-04-02 12:33:00,53.0,44.0,-100.00,West,265,7.0,9.0,70,0.00,,,-99.99,,2013-04-02 18:33:00,
2013-04-02 12:42:00,54.0,44.0,-100.00,SW,236,11.0,12.0,68,0.00,,,-99.99,,2013-04-02 18:42:00,
2013-04-02 12:55:00,55.0,44.0,-100.00,WSW,240,10.0,13.0,66,0.00,,,-99.99,,2013-04-02 18:55:00,
2013-04-02 13:02:00,55.0,44.0,-100.00,WSW,240,10.0,13.0,66,0.00,,,-99.99,,2013-04-02 19:02:00,
2013-04-02 13:22:00,57.0,43.0,-100.00,West,270,10.0,13.0,60,0.00,,,-99.99,,2013-04-02 19:22:00,
2013-04-02 13:32:00,57.0,43.0,-100.00,West,270,10.0,13.0,60,0.00,,,-99.99,,2013-04-02 19:32:00,
2013-04-02 13:43:00,58.0,44.0,-100.00,West,265,9.0,14.0,59,0.00,,,-99.99,,2013-04-02 19:43:00,
2013-04-02 13:54:00,58.0,41.0,-100.00,West,264,9.0,12.0,53,0.00,,,-99.99,,2013-04-02 19:54:00,
2013-04-02 14:02:00,58.0,41.0,-100.00,West,264,9.0,12.0,53,0.00,,,-99.99,,2013-04-02 20:02:00,
2013-04-02 14:12:00,60.0,40.0,-100.00,WSW,254,10.0,12.0,47,0.00,,,-99.99,,2013-04-02 20:12:00,
2013-04-02 14:22:00,60.0,39.0,-100.00,West,268,8.0,11.0,46,0.00,,,-99.99,,2013-04-02 20:22:00,
2013-04-02 14:32:00,60.0,39.0,-100.00,West,268,8.0,11.0,46,0.00,,,-99.99,,2013-04-02 20:32:00,
2013-04-02 14:43:00,60.0,35.0,-100.00,WNW,284,8.0,12.0,38,0.00,,,-99.99,,2013-04-02 20:43:00,
2013-04-02 14:54:00,61.0,33.0,-100.00,WNW,296,9.0,11.0,35,0.00,,,-99.99,,2013-04-02 20:54:00,
2013-04-02 15:02:00,61.0,33.0,-100.00,WNW,296,9.0,11.0,35,0.00,,,-99.99,,2013-04-02 21:02:00,
2013-04-02 15:12:00,61.0,35.0,-100.00,West,268,8.0,12.0,37,0.00,,,-99.99,,2013-04-02 21:12:00,
2013-04-02 15:22:00,62.0,35.0,-100.00,NW,313,6.0,9.0,35,0.00,,,-99.99,,2013-04-02 21:22:00,
2013-04-02 15:32:00,62.0,35.0,-100.00,NW,313,6.0,9.0,35,0.00,,,-99.99,,2013-04-02 21:32:00,
2013-04-02 15:42:00,62.0,36.0,-100.00,WSW,247,9.0,11.0,37,0.00,,,-99.99,,2013-04-02 21:42:00,
2013-04-02 15:55:00,63.0,32.0,-100.00,WNW,302,5.0,9.0,31,0.00,,,-99.99,,2013-04-02 21:55:00,
2013-04-02 16:03:00,63.0,32.0,-100.00,WNW,302,5.0,9.0,31,0.00,,,-99.99,,2013-04-02 22:03:00,
2013-04-02 16:13:00,64.0,35.0,-100.00,NW,304,5.0,7.0,34,0.00,,,-99.99,,2013-04-02 22:13:00,
2013-04-02 16:23:00,64.0,35.0,-100.00,West,260,7.0,10.0,34,0.00,,,-99.99,,2013-04-02 22:23:00,
2013-04-02 16:32:00,64.0,35.0,-100.00,West,260,7.0,10.0,34,0.00,,,-99.99,,2013-04-02 22:32:00,
2013-04-02 16:43:00,64.0,28.0,-100.00,West,280,4.0,7.0,25,0.00,,,-99.99,,2013-04-02 22:43:00,
2013-04-02 16:53:00,65.0,33.0,-100.00,WNW,296,6.0,9.0,30,0.00,,,-99.99,,2013-04-02 22:53:00,
2013-04-02 17:02:00,65.0,33.0,-100.00,WNW,296,6.0,9.0,30,0.00,,,-99.99,,2013-04-02 23:02:00,
2013-04-02 17:12:00,65.0,33.0,-100.00,WNW,296,6.0,9.0,30,0.00,,,-99.99,,2013-04-02 23:12:00,
2013-04-02 17:23:00,65.0,29.0,-100.00,WSW,258,3.0,6.0,25,0.00,,,-99.99,,2013-04-02 23:23:00,
2013-04-02 17:32:00,65.0,29.0,-100.00,WSW,258,3.0,6.0,25,0.00,,,-99.99,,2013-04-02 23:32:00,
2013-04-02 17:43:00,66.0,32.0,-100.00,WNW,296,3.0,4.0,28,0.00,,,-99.99,,2013-04-02 23:43:00,
2013-04-02 17:53:00,65.0,30.0,-100.00,SSW,208,7.0,8.0,26,0.00,,,-99.99,,2013-04-02 23:53:00,
2013-04-02 18:02:00,65.0,30.0,-100.00,SSW,208,7.0,8.0,26,0.00,,,-99.99,,2013-04-03 00:02:00,
2013-04-02 18:12:00,66.0,32.0,-100.00,SW,219,4.0,5.0,28,0.00,,,-99.99,,2013-04-03 00:12:00,
2013-04-02 18:23:00,66.0,30.0,-100.00,WSW,253,5.0,8.0,26,0.00,,,-99.99,,2013-04-03 00:23:00,
2013-04-02 18:32:00,66.0,30.0,-100.00,WSW,253,5.0,8.0,26,0.00,,,-99.99,,2013-04-03 00:32:00,
2013-04-02 18:44:00,66.0,34.0,-100.00,SW,224,3.0,5.0,31,0.00,,,-99.99,,2013-04-03 00:44:00,
2013-04-02 18:54:00,65.0,35.0,-100.00,West,260,6.0,8.0,32,0.00,,,-99.99,,2013-04-03 00:54:00,
2013-04-02 19:02:00,65.0,35.0,-100.00,West,260,6.0,8.0,32,0.00,,,-99.99,,2013-04-03 01:02:00,
2013-04-02 19:12:00,65.0,35.0,-100.00,WSW,254,8.0,9.0,32,0.00,,,-99.99,,2013-04-03 01:12:00,
2013-04-02 19:22:00,65.0,34.0,-100.00,WSW,239,8.0,9.0,31,0.00,,,-99.99,,2013-04-03 01:22:00,
2013-04-02 19:33:00,65.0,34.0,-100.00,WSW,239,8.0,9.0,31,0.00,,,-99.99,,2013-04-03 01:33:00,
2013-04-02 19:42:00,63.0,35.0,-100.00,WSW,241,6.0,6.0,34,0.00,,,-99.99,,2013-04-03 01:42:00,
2013-04-02 19:53:00,63.0,35.0,-100.00,WSW,241,6.0,6.0,34,0.00,,,-99.99,,2013-04-03 01:53:00,
2013-04-02 20:02:00,63.0,35.0,-100.00,WSW,241,6.0,6.0,34,0.00,,,-99.99,,2013-04-03 02:02:00,
2013-04-02 20:12:00,58.0,38.0,-100.00,SW,219,5.0,6.0,47,0.00,,,-99.99,,2013-04-03 02:12:00,
2013-04-02 20:23:00,56.0,38.0,-100.00,SSW,213,6.0,6.0,50,0.00,,,-99.99,,2013-04-03 02:23:00,
2013-04-02 20:33:00,56.0,38.0,-100.00,SSW,213,6.0,6.0,50,0.00,,,-99.99,,2013-04-03 02:33:00,
2013-04-02 20:42:00,54.0,39.0,-100.00,SSW,202,7.0,9.0,56,0.00,,,-99.99,,2013-04-03 02:42:00,
2013-04-02 20:53:00,54.0,40.0,-100.00,SSW,209,9.0,10.0,58,0.00,,,-99.99,,2013-04-03 02:53:00,
2013-04-02 21:02:00,54.0,40.0,-100.00,SSW,209,9.0,10.0,58,0.00,,,-99.99,,2013-04-03 03:02:00,
2013-04-02 21:13:00,54.0,40.0,-100.00,SSW,200,8.0,9.0,59,0.00,,,-99.99,,2013-04-03 03:13:00,
2013-04-02 21:22:00,53.0,39.0,-100.00,SSW,199,7.0,9.0,60,0.00,,,-99.99,,2013-04-03 03:22:00,
2013-04-02 21:34:00,53.0,39.0,-100.00,SSW,199,7.0,9.0,60,0.00,,,-99.99,,2013-04-03 03:34:00,
2013-04-02 21:43:00,52.0,40.0,-100.00,SSW,195,7.0,8.0,63,0.00,,,-99.99,,2013-04-03 03:43:00,
2013-04-02 21:54:00,51.0,40.0,-100.00,SSW,192,6.0,7.0,65,0.00,,,-99.99,,2013-04-03 03:54:00,
2013-04-02 22:02:00,51.0,40.0,-100.00,SSW,192,6.0,7.0,65,0.00,,,-99.99,,2013-04-03 04:02:00,
2013-04-02 22:12:00,51.0,40.0,-100.00,SSW,192,6.0,7.0,66,0.00,,,-99.99,,2013-04-03 04:12:00,
2013-04-02 22:23:00,50.0,40.0,-100.00,SSW,202,8.0,10.0,66,0.00,,,-99.99,,2013-04-03 04:23:00,
2013-04-02 22:32:00,50.0,40.0,-100.00,SSW,202,8.0,10.0,66,0.00,,,-99.99,,2013-04-03 04:32:00,
2013-04-02 22:42:00,52.0,40.0,-100.00,SSW,205,11.0,13.0,63,0.00,,,-99.99,,2013-04-03 04:42:00,
2013-04-02 22:53:00,53.0,40.0,-100.00,SSW,208,12.0,13.0,61,0.00,,,-99.99,,2013-04-03 04:53:00,
2013-04-02 23:02:00,53.0,40.0,-100.00,SSW,208,12.0,13.0,61,0.00,,,-99.99,,2013-04-03 05:02:00,
2013-04-02 23:12:00,51.0,39.0,-100.00,SSW,205,9.0,11.0,62,0.00,,,-99.99,,2013-04-03 05:12:00,
2013-04-02 23:22:00,52.0,38.0,-100.00,SSW,200,11.0,13.0,57,0.00,,,-99.99,,2013-04-03 05:22:00,
2013-04-02 23:32:00,52.0,38.0,-100.00,SSW,200,11.0,13.0,57,0.00,,,-99.99,,2013-04-03 05:32:00,
2013-04-02 23:42:00,50.0,37.0,-100.00,SSW,200,9.0,10.0,60,0.00,,,-99.99,,2013-04-03 05:42:00,
2013-04-02 23:52:00,50.0,37.0,-100.00,SSW,200,9.0,10.0,60,0.00,,,-99.99,,2013-04-03 05:52:00,